Vršac International Airport

LYVR · Vojvodina, Servië

METAR historie LYVR · Vršac International Airport

Hieronder zie je METAR's van de afgelopen dagen. Kies een jaar om door oudere METAR's te bladeren, vanaf het jaar 2007.

19 april 2024

Tijd Code Weer Temp. Zicht Plafond Wind METAR/SPECI
18:00
V
13 °C 10 km+ - 320° 320° 4 kt METAR LYVR 191600Z AUTO 32004KT 270V010 CAVOK 13/M03 Q1012
17:30
V
14 °C 10 km+ - 350° 350° 5 kt METAR LYVR 191530Z AUTO 35005KT 330V040 CAVOK 14/M03 Q1012
17:00
V
13 °C 10 km+ - 300° 300° 6 kt METAR LYVR 191500Z AUTO 30006KT 270V330 CAVOK 13/M03 Q1012
16:30
V
13 °C 10 km+ - 300° 300° 4 kt METAR LYVR 191430Z AUTO 30004KT 270V330 CAVOK 13/M03 Q1012
16:00
V
14 °C 10 km+ - 320° 320° 4 kt METAR LYVR 191400Z AUTO 32004KT 210V020 CAVOK 14/M01 Q1012
15:30
V
13 °C 10 km+ - 290° 290° 7 kt METAR LYVR 191330Z AUTO 29007KT 200V010 CAVOK 13/M01 Q1013
15:00
V
14 °C 10 km+ - 270° 270° 6 kt METAR LYVR 191300Z 27006KT 210V340 9999 SCT033 14/M01 Q1013 NOSIG
14:30
V
13 °C 10 km+ - 280° 280° 8 kt METAR LYVR 191230Z 28008KT 250V350 9999 SCT033 13/01 Q1013 NOSIG
14:00
V
13 °C 10 km+ - 280° 280° 8 kt METAR LYVR 191200Z 28008KT 240V330 9999 SCT033 13/02 Q1013 NOSIG
13:30
V
13 °C 10 km+ - 290° 290° 8 - 23 kt METAR LYVR 191130Z 29008G23KT 9999 FEW026 SCT033 13/02 Q1014 NOSIG
13:00
V
12 °C 10 km+ - 300° 300° 6 kt METAR LYVR 191100Z 30006KT 250V350 9999 FEW026 SCT033 12/04 Q1014 NOSIG
12:30
V
12 °C 10 km+ - 300° 300° 6 kt METAR LYVR 191030Z 30006KT 240V350 9999 FEW026 SCT033 12/05 Q1014 NOSIG
12:00
V
11 °C 10 km+ - Var Var 5 kt METAR LYVR 191000Z VRB05KT 9999 FEW023 SCT030 11/06 Q1015 NOSIG
11:30
V
11 °C 10 km+ - 230° 230° 5 kt METAR LYVR 190930Z 23005KT 170V300 9999 FEW023 SCT030 11/06 Q1015 NOSIG
11:00
V
10 °C 10 km+ - 260° 260° 5 kt METAR LYVR 190900Z 26005KT 210V320 9999 SCT020 10/06 Q1015 NOSIG
10:30
V
9 °C 10 km+ - 230° 230° 6 kt METAR LYVR 190830Z 23006KT 170V260 9999 SCT020 09/06 Q1015 NOSIG
10:00
V
8 °C 10 km+ - Var Var 5 kt METAR LYVR 190800Z VRB05KT 9999 SCT016 08/06 Q1015 NOSIG
09:30
V
8 °C 10 km+ - Var Var 2 kt METAR LYVR 190730Z VRB02KT 9999 SCT016 08/05 Q1015 NOSIG
09:00
V
7 °C 10 km+ - 260° 260° 1 kt METAR LYVR 190700Z 26001KT 9999 SCT013 07/05 Q1015 NOSIG
08:30
V
6 °C 10 km+ - Var Var 2 kt METAR LYVR 190630Z VRB02KT 9999 FEW013 06/05 Q1015 NOSIG
08:00
V
5 °C 10 km+ - Var Var 4 kt METAR LYVR 190600Z VRB04KT 9999 FEW013 05/04 Q1014 NOSIG
07:30
V
5 °C 10 km+ - 250° 250° 4 kt METAR LYVR 190530Z 25004KT 220V290 CAVOK 05/04 Q1014 RETS RESHRA NOSIG
07:00
V
5 °C 10 km+ - 230° 230° 4 kt METAR LYVR 190500Z AUTO 23004KT 200V260 CAVOK 05/04 Q1014
06:30
V
4 °C 9 km - 220° 220° 4 kt METAR LYVR 190430Z AUTO 22004KT 190V250 9000 NSC 04/04 Q1014
06:00
V
5 °C 9 km - 210° 210° 7 kt METAR LYVR 190400Z AUTO 21007KT 9000 NSC 05/05 Q1013
05:30
V
5 °C 9 km 9.300 ft 190° 190° 8 kt METAR LYVR 190330Z AUTO 19008KT 160V220 9000 FEW005/// BKN093/// 05/05 Q1013
05:00
V
6 °C 10 km+ 9.300 ft 190° 190° 9 kt METAR LYVR 190300Z AUTO 19009KT 9999 FEW016/// SCT071/// BKN093/// 06/06 Q1013
04:30
V
6 °C 10 km+ - 190° 190° 7 kt METAR LYVR 190230Z AUTO 19007KT 160V220 CAVOK 06/06 Q1013
04:00
V
6 °C 10 km+ - 170° 170° 3 kt METAR LYVR 190200Z AUTO 17003KT 140V210 CAVOK 06/06 Q1012
03:30
V
6 °C 10 km+ - 180° 180° 7 kt METAR LYVR 190130Z AUTO 18007KT 9999 FEW038/// 06/06 Q1012
03:00
I
4 °C 1,7 km - 360° 360° 0 kt METAR LYVR 190100Z AUTO 00000KT 9999 1700 FEW037/// 04/04 Q1013
02:30
V
4 °C 10 km+ - Var Var 1 kt METAR LYVR 190030Z AUTO VRB01KT CAVOK 04/04 Q1012
02:00
V
3 °C 10 km+ - Var Var 1 kt METAR LYVR 190000Z AUTO VRB01KT CAVOK 03/03 Q1013
01:30
V
4 °C 10 km+ 9.800 ft 360° 360° 0 kt METAR LYVR 182330Z AUTO 00000KT 9999 FEW035/// OVC098/// 04/04 Q1013
01:00
V
3 °C 10 km+ 9.800 ft Var Var 1 kt METAR LYVR 182300Z AUTO VRB01KT 9999 FEW035/// SCT048/// OVC098/// 03/03 Q1013
00:30
V
4 °C 10 km+ - 200° 200° 1 kt METAR LYVR 182230Z AUTO 20001KT CAVOK 04/04 Q1013
00:00
V
4 °C 9 km 9.700 ft Var Var 1 kt METAR LYVR 182200Z AUTO VRB01KT 9000 FEW047/// OVC097/// 04/04 Q1013

18 april 2024

Tijd Code Weer Temp. Zicht Plafond Wind METAR/SPECI
23:30
I
3 °C 3,4 km - Var Var 1 kt METAR LYVR 182130Z AUTO VRB01KT 7000 3400 NSC 03/03 Q1012
23:00
V
3 °C 10 km+ - 360° 360° 0 kt METAR LYVR 182100Z AUTO 00000KT CAVOK 03/03 Q1012
22:30
V
4 °C 10 km+ - 360° 360° 0 kt METAR LYVR 182030Z AUTO 00000KT CAVOK 04/04 Q1012
22:00
V
4 °C 10 km+ - 170° 170° 2 kt METAR LYVR 182000Z AUTO 17002KT CAVOK 04/04 Q1012
21:30
V
5 °C 10 km+ - Var Var 2 kt METAR LYVR 181930Z AUTO VRB02KT CAVOK 05/05 Q1012
21:00
V
6 °C 10 km+ - Var Var 2 kt METAR LYVR 181900Z AUTO VRB02KT CAVOK 06/06 Q1011
20:30
V
7 °C 10 km+ - Var Var 1 kt METAR LYVR 181830Z AUTO VRB01KT CAVOK 07/07 Q1011
20:00
V
7 °C 10 km+ - 200° 200° 4 kt METAR LYVR 181800Z AUTO 20004KT CAVOK 07/07 Q1011
19:30
V
7 °C 10 km+ - 190° 190° 4 kt METAR LYVR 181730Z AUTO 19004KT CAVOK 07/07 Q1011
19:00
V
8 °C 10 km+ 5.700 ft 220° 220° 2 kt METAR LYVR 181700Z AUTO 22002KT 9999 FEW044/// BKN057/// 08/07 Q1011
18:30
V
8 °C 10 km+ 4.900 ft Var Var 2 kt METAR LYVR 181630Z AUTO VRB02KT 9999 -SHRA SCT042/// OVC049/// 08/07 Q1010 RESHRA
18:00
V
8 °C 10 km+ 3.600 ft 040° 040° 5 kt METAR LYVR 181600Z AUTO 04005KT 9999 -SHRA SCT018/// BKN036/// 08/06 Q1010 RESHRA
17:30
V
10 °C 10 km+ 8.400 ft 270° 270° 9 kt METAR LYVR 181530Z AUTO 27009KT 9999 FEW034/// BKN084/// 10/08 Q1009
17:00
V
10 °C 10 km+ 9.300 ft 280° 280° 10 kt METAR LYVR 181500Z AUTO 28010KT 9999 SCT038/// BKN093/// 10/07 Q1009
16:30
V
9 °C 10 km+ 4.400 ft 260° 260° 4 kt METAR LYVR 181430Z AUTO 26004KT 220V290 9999 -SHRA SCT036/// OVC044/// 09/08 Q1009
16:00
V
9 °C 10 km+ 5.400 ft 280° 280° 7 kt METAR LYVR 181400Z AUTO 28007KT 240V320 9999 FEW047/// OVC054/// 09/08 Q1009 RESHRA
15:30
V
8 °C 10 km+ 4.000 ft 290° 290° 5 kt METAR LYVR 181330Z AUTO 29005KT 250V320 9999 SHRA SCT031/// OVC040/// 08/07 Q1009
15:00
V
8 °C 10 km+ - 310° 310° 7 kt METAR LYVR 181300Z 31007KT 270V360 9999 -RA FEW013 SCT030TCU SCT040 08/07 Q1009 RETS RESHRA NOSIG
14:30
V
8 °C 10 km+ - 330° 330° 10 kt METAR LYVR 181230Z 33010KT 9999 FEW015 FEW030TCU SCT040 08/06 Q1008 NOSIG
14:00
V
11 °C 10 km+ - 280° 280° 10 kt METAR LYVR 181200Z 28010KT 240V320 9999 FEW015 FEW030TCU SCT040 11/08 Q1008 TEMPO 34015G25KT 4000 TSRA SCT027CB BKN035
13:30
V
11 °C 10 km+ - 270° 270° 12 kt METAR LYVR 181130Z 27012KT 9999 FEW015 FEW030TCU SCT040 11/09 Q1007 TEMPO 34015G25KT 4000 TSRA SCT027CB BKN035
13:00
M
9 °C 10 km+ 3.000 ft 280° 280° 8 kt METAR LYVR 181100Z 28008KT 250V310 9999 SCT016 BKN030 09/08 Q1007 NOSIG
12:30
M
10 °C 10 km+ 2.300 ft 280° 280° 8 kt METAR LYVR 181030Z 28008KT 240V310 9999 SCT013 BKN023 10/07 Q1007 NOSIG
12:00
M
8 °C 10 km+ 1.000 ft 300° 300° 7 kt METAR LYVR 181000Z 30007KT 260V330 9999 -RA BKN010 BKN020 08/07 Q1007 NOSIG
11:30
M
8 °C 10 km+ 1.000 ft 310° 310° 7 kt METAR LYVR 180930Z 31007KT 9999 -RA BKN010 BKN023 08/07 Q1007 NOSIG
11:00
M
8 °C 10 km+ 1.300 ft 310° 310° 6 kt METAR LYVR 180900Z 31006KT 280V340 9999 BKN013 BKN023 08/07 Q1007 NOSIG
10:30
M
8 °C 10 km+ 1.300 ft 320° 320° 8 kt METAR LYVR 180830Z 32008KT 9999 BKN013 BKN023 08/07 Q1006 NOSIG
10:00
M
8 °C 10 km+ 1.000 ft 320° 320° 9 kt METAR LYVR 180800Z 32009KT 9999 BKN010 BKN020 08/07 Q1006 NOSIG
09:30
M
8 °C 10 km+ 1.000 ft 330° 330° 6 kt METAR LYVR 180730Z 33006KT 9999 BKN010 OVC016 08/07 Q1006 NOSIG
09:00
V
8 °C 10 km+ 3.300 ft 360° 360° 6 kt METAR LYVR 180700Z 36006KT 9999 -RA SCT008 BKN033 08/08 Q1005 NOSIG
08:30
I
7 °C 6 km 800 ft 350° 350° 10 kt METAR LYVR 180630Z 35010KT 6000 -RA BKN008 BKN026 07/07 Q1005 NOSIG
08:00
I
8 °C 7 km 500 ft 270° 270° 5 kt METAR LYVR 180600Z 27005KT 240V300 7000 BKN005 08/08 Q1005 NOSIG
07:30
I
7 °C 7 km 500 ft 260° 260° 6 kt METAR LYVR 180530Z 26006KT 220V290 7000 OVC005 07/07 Q1005 NOSIG
07:00
I
7 °C 10 km+ 500 ft 260° 260° 4 kt METAR LYVR 180500Z AUTO 26004KT 9999 BKN005/// OVC035/// 07/07 Q1004
06:30
L
7 °C 8 km 400 ft 260° 260° 5 kt METAR LYVR 180430Z AUTO 26005KT 220V290 8000 -DZ BKN004/// OVC024/// 07/07 Q1004
06:00
I
7 °C 8 km 500 ft 270° 270° 5 kt METAR LYVR 180400Z AUTO 27005KT 240V320 8000 -DZ BKN005/// OVC023/// 07/07 Q1004
05:30
L
7 °C 8 km 400 ft 260° 260° 5 kt METAR LYVR 180330Z AUTO 26005KT 220V290 8000 -SHRA OVC004/// 07/07 Q1004
05:00
I
7 °C 10 km+ 500 ft 240° 240° 4 kt METAR LYVR 180300Z AUTO 24004KT 210V280 9999 -SHRA BKN005/// BKN037/// OVC052/// 07/07 Q1004
04:30
V
6 °C 10 km+ 5.000 ft 200° 200° 5 kt METAR LYVR 180230Z AUTO 20005KT 9999 -SHRA SCT038/// BKN050/// OVC069/// 06/06 Q1004
04:00
V
7 °C 10 km+ 6.400 ft 220° 220° 5 kt METAR LYVR 180200Z AUTO 22005KT 9999 -SHRA FEW007/// SCT034/// OVC064/// 07/07 Q1004
03:30
I
7 °C 10 km+ 600 ft 240° 240° 5 kt METAR LYVR 180130Z AUTO 24005KT 210V270 9999 -SHRA BKN006/// BKN037/// OVC061/// 07/07 Q1004
03:00
I
7 °C 10 km+ 600 ft 240° 240° 5 kt METAR LYVR 180100Z AUTO 24005KT 220V280 9999 -SHRA BKN006/// OVC062/// 07/07 Q1004
02:30
I
7 °C 10 km+ 500 ft 230° 230° 3 kt METAR LYVR 180030Z AUTO 23003KT 9999 -RA OVC005/// 07/07 Q1004
02:00
I
7 °C 10 km+ 500 ft 280° 280° 4 kt METAR LYVR 180000Z AUTO 28004KT 220V320 9999 -SHRA BKN005/// BKN014/// OVC040/// 07/07 Q1004
01:30
I
7 °C 10 km+ 500 ft 240° 240° 5 kt METAR LYVR 172330Z AUTO 24005KT 9999 -SHRA OVC005/// 07/07 Q1004
01:00
I
7 °C 10 km+ 600 ft 230° 230° 4 kt METAR LYVR 172300Z AUTO 23004KT 200V270 9999 -SHRA OVC006/// 07/07 Q1004
00:30
I
7 °C 10 km+ 600 ft 230° 230° 4 kt METAR LYVR 172230Z AUTO 23004KT 9999 -SHRA OVC006/// 07/07 Q1004
00:00
I
7 °C 10 km+ 500 ft 240° 240° 4 kt METAR LYVR 172200Z AUTO 24004KT 200V280 9999 -RA OVC005/// 07/07 Q1004

17 april 2024

Tijd Code Weer Temp. Zicht Plafond Wind METAR/SPECI
23:30
I
7 °C 10 km+ 500 ft 250° 250° 5 kt METAR LYVR 172130Z AUTO 25005KT 220V280 9999 BKN005/// OVC038/// 07/07 Q1004
23:00
I
7 °C 10 km+ 500 ft 250° 250° 6 kt METAR LYVR 172100Z AUTO 25006KT 220V290 9999 OVC005/// 07/07 Q1004
22:30
V
7 °C 10 km+ 4.400 ft 240° 240° 3 kt METAR LYVR 172030Z AUTO 24003KT 200V280 9999 FEW006/// SCT026/// OVC044/// 07/07 Q1004
22:00
I
7 °C 10 km+ 500 ft 240° 240° 5 kt METAR LYVR 172000Z AUTO 24005KT 220V280 9999 BKN005/// BKN007/// OVC080/// 07/07 Q1004
21:30
I
7 °C 10 km+ 600 ft 240° 240° 3 kt METAR LYVR 171930Z AUTO 24003KT 210V280 9999 BKN006/// BKN034/// OVC076/// 07/07 Q1004
21:00
I
7 °C 10 km+ 600 ft 240° 240° 5 kt METAR LYVR 171900Z AUTO 24005KT 190V290 9999 BKN006/// OVC037/// 07/07 Q1004
20:30
V
7 °C 10 km+ 7.000 ft 250° 250° 3 kt METAR LYVR 171830Z AUTO 25003KT 210V290 9999 FEW007/// OVC070/// 07/07 Q1004
20:00
V
8 °C 10 km+ 6.800 ft 270° 270° 5 kt METAR LYVR 171800Z AUTO 27005KT 9999 FEW008/// SCT032/// OVC068/// 08/08 Q1004
19:30
V
8 °C 10 km+ 6.300 ft 270° 270° 7 kt METAR LYVR 171730Z AUTO 27007KT 240V310 9999 FEW010/// OVC063/// 08/08 Q1003
19:00
V
8 °C 10 km+ 5.300 ft 280° 280° 10 kt METAR LYVR 171700Z AUTO 28010KT 250V310 9999 SCT013/// BKN053/// OVC062/// 08/08 Q1003
18:30
M
8 °C 10 km+ 1.800 ft 230° 230° 6 kt METAR LYVR 171630Z AUTO 23006KT 200V260 9999 -SHRA FEW006/// BKN018/// OVC047/// 08/08 Q1003
18:00
M
9 °C 10 km+ 2.200 ft 240° 240° 4 kt METAR LYVR 171600Z AUTO 24004KT 200V280 9999 FEW018/// BKN022/// OVC029/// 09/08 Q1003
17:30
M
9 °C 10 km+ 1.800 ft 230° 230° 4 kt METAR LYVR 171530Z AUTO 23004KT 200V350 9999 -DZ BKN018/// OVC024/// 09/07 Q1003
17:00
V
10 °C 10 km+ 4.400 ft 360° 360° 0 kt METAR LYVR 171500Z AUTO 00000KT 9999 -SHRA FEW026/// OVC044/// 10/07 Q1003
16:30
V
9 °C 10 km+ 3.600 ft Var Var 2 kt METAR LYVR 171430Z AUTO VRB02KT 9999 -SHRA BKN036/// OVC042/// 09/06 Q1003
16:00
V
8 °C 10 km+ 4.400 ft 280° 280° 4 kt METAR LYVR 171400Z AUTO 28004KT 250V320 9999 OVC044/// 08/07 Q1003
15:30
M
8 °C 6 km 3.100 ft 300° 300° 10 kt METAR LYVR 171330Z AUTO 30010KT 280V340 6000 -RA FEW011/// SCT019/// OVC031/// 08/07 Q1003
15:00
V
10 °C 10 km+ - 320° 320° 8 kt METAR LYVR 171300Z 32008KT 280V350 9999 SCT026 10/05 Q1003 NOSIG
14:30
V
9 °C 10 km+ 4.000 ft 320° 320° 7 kt METAR LYVR 171230Z 32007KT 290V350 9999 SCT026 OVC040 09/05 Q1003 NOSIG
14:00
M
9 °C 10 km+ 2.600 ft 330° 330° 7 kt METAR LYVR 171200Z 33007KT 9999 BKN026 OVC033 09/06 Q1003 NOSIG
13:30
M
9 °C 10 km+ 2.300 ft 330° 330° 11 kt METAR LYVR 171130Z 33011KT 9999 BKN023 OVC033 09/06 Q1003 NOSIG
13:00
M
8 °C 10 km+ 2.000 ft 330° 330° 10 kt METAR LYVR 171100Z 33010KT 290V360 9999 BKN020 OVC040 08/06 Q1003 NOSIG
12:30
M
8 °C 10 km+ 2.000 ft 330° 330° 10 kt METAR LYVR 171030Z 33010KT 9999 BKN020 OVC033 08/05 Q1003 NOSIG
12:00
M
8 °C 10 km+ 2.000 ft 340° 340° 10 kt METAR LYVR 171000Z 34010KT 310V010 9999 BKN020 OVC033 08/05 Q1004 NOSIG
11:30
M
7 °C 10 km+ 1.500 ft 360° 360° 12 kt METAR LYVR 170930Z 36012KT 9999 BKN015 OVC033 07/05 Q1003 NOSIG
11:00
M
7 °C 10 km+ 1.300 ft 360° 360° 12 kt METAR LYVR 170900Z 36012KT 9999 -RA BKN013 BKN033 07/06 Q1003 NOSIG
10:30
M
7 °C 10 km+ 1.300 ft 350° 350° 10 kt METAR LYVR 170830Z 35010KT 9999 -RA BKN013 BKN023 OVC033 07/06 Q1004 NOSIG
10:00
M
6 °C 10 km+ 1.000 ft 350° 350° 9 kt METAR LYVR 170800Z 35009KT 9999 -RA BKN010 BKN020 OVC033 06/06 Q1004 NOSIG
09:30
M
6 °C 10 km+ 1.000 ft 350° 350° 10 kt METAR LYVR 170730Z 35010KT 9999 -RA BKN010 BKN020 OVC030 06/06 Q1004 NOSIG
09:00
M
6 °C 10 km+ 1.500 ft 360° 360° 12 kt METAR LYVR 170700Z 36012KT 9999 -RA SCT009 BKN015 OVC033 06/05 Q1003 NOSIG
08:30
I
5 °C 10 km+ 900 ft 360° 360° 14 kt METAR LYVR 170630Z 36014KT 9999 -RA BKN009 BKN020 OVC033 05/05 Q1004 NOSIG
08:00
M
5 °C 8 km 1.000 ft 010° 010° 9 kt METAR LYVR 170600Z 01009KT 8000 -RA SCT006 BKN010 OVC030 05/05 Q1004 NOSIG
Wijziging doorgeven